sensor_id;sensor_type;location;lat;lon;timestamp;pressure;altitude;pressure_sealevel;temperature;humidity
62237;BME280;69163;48.778;2.308;2023-08-12T00:01:41;101078.24;;;21.17;46.44
62237;BME280;69163;48.778;2.308;2023-08-12T00:04:05;101078.02;;;20.99;46.38
62237;BME280;69163;48.778;2.308;2023-08-12T00:06:31;101074.31;;;21.34;46.23
62237;BME280;69163;48.778;2.308;2023-08-12T00:08:56;101064.99;;;21.38;46.16
62237;BME280;69163;48.778;2.308;2023-08-12T00:11:21;101065.71;;;21.41;46.07
62237;BME280;69163;48.778;2.308;2023-08-12T00:13:47;101064.29;;;21.44;46.07
62237;BME280;69163;48.778;2.308;2023-08-12T00:16:13;101057.49;;;21.40;46.10
62237;BME280;69163;48.778;2.308;2023-08-12T00:18:37;101055.85;;;21.26;46.33
62237;BME280;69163;48.778;2.308;2023-08-12T00:21:06;101051.85;;;21.17;46.46
62237;BME280;69163;48.778;2.308;2023-08-12T00:23:27;101051.79;;;21.26;46.32
62237;BME280;69163;48.778;2.308;2023-08-12T00:25:53;101049.06;;;20.86;46.26
62237;BME280;69163;48.778;2.308;2023-08-12T00:28:18;101050.09;;;21.30;46.26
62237;BME280;69163;48.778;2.308;2023-08-12T00:30:43;101048.15;;;21.18;46.10
62237;BME280;69163;48.778;2.308;2023-08-12T00:33:08;101046.47;;;20.95;46.09
62237;BME280;69163;48.778;2.308;2023-08-12T00:35:33;101045.53;;;21.22;46.02
62237;BME280;69163;48.778;2.308;2023-08-12T00:37:59;101041.72;;;21.27;46.38
62237;BME280;69163;48.778;2.308;2023-08-12T00:40:24;101043.73;;;21.50;46.42
62237;BME280;69163;48.778;2.308;2023-08-12T00:42:49;101043.33;;;21.25;46.44
62237;BME280;69163;48.778;2.308;2023-08-12T00:45:15;101041.68;;;21.09;46.32
62237;BME280;69163;48.778;2.308;2023-08-12T00:47:40;101041.17;;;21.13;46.27
62237;BME280;69163;48.778;2.308;2023-08-12T00:50:06;101043.71;;;21.15;46.20
62237;BME280;69163;48.778;2.308;2023-08-12T00:52:30;101045.98;;;20.91;46.20
62237;BME280;69163;48.778;2.308;2023-08-12T00:54:55;101044.77;;;21.39;46.23
62237;BME280;69163;48.778;2.308;2023-08-12T00:57:20;101051.22;;;20.78;46.42
62237;BME280;69163;48.778;2.308;2023-08-12T00:59:45;101045.82;;;21.21;46.51
62237;BME280;69163;48.778;2.308;2023-08-12T01:02:12;101040.28;;;21.21;46.48
62237;BME280;69163;48.778;2.308;2023-08-12T01:04:36;101029.96;;;21.10;46.30
62237;BME280;69163;48.778;2.308;2023-08-12T01:07:01;101032.82;;;21.25;46.46
62237;BME280;69163;48.778;2.308;2023-08-12T01:09:26;101030.82;;;21.30;46.37
62237;BME280;69163;48.778;2.308;2023-08-12T01:11:55;101021.28;;;21.08;46.32
62237;BME280;69163;48.778;2.308;2023-08-12T01:14:22;101029.71;;;21.10;46.26
62237;BME280;69163;48.778;2.308;2023-08-12T01:16:45;101031.32;;;21.13;46.27
62237;BME280;69163;48.778;2.308;2023-08-12T01:19:11;101027.18;;;21.13;46.31
62237;BME280;69163;48.778;2.308;2023-08-12T01:21:33;101026.53;;;21.07;46.34
62237;BME280;69163;48.778;2.308;2023-08-12T01:23:58;101034.65;;;21.04;46.45
62237;BME280;69163;48.778;2.308;2023-08-12T01:26:22;101030.76;;;21.10;46.34
62237;BME280;69163;48.778;2.308;2023-08-12T01:28:48;101028.11;;;21.37;46.27
62237;BME280;69163;48.778;2.308;2023-08-12T01:31:18;101026.23;;;21.45;46.20
62237;BME280;69163;48.778;2.308;2023-08-12T01:33:44;101028.19;;;21.16;46.23
62237;BME280;69163;48.778;2.308;2023-08-12T01:36:07;101028.31;;;21.44;46.19
62237;BME280;69163;48.778;2.308;2023-08-12T01:38:30;101027.61;;;21.38;46.28
62237;BME280;69163;48.778;2.308;2023-08-12T01:40:54;101021.12;;;21.32;46.39
62237;BME280;69163;48.778;2.308;2023-08-12T01:43:19;101021.66;;;20.79;46.54
62237;BME280;69163;48.778;2.308;2023-08-12T01:45:44;101018.73;;;21.31;46.42
62237;BME280;69163;48.778;2.308;2023-08-12T01:48:09;101014.03;;;21.34;46.39
62237;BME280;69163;48.778;2.308;2023-08-12T01:50:34;101016.81;;;21.43;46.27
62237;BME280;69163;48.778;2.308;2023-08-12T01:53:00;101011.02;;;21.44;46.21
62237;BME280;69163;48.778;2.308;2023-08-12T01:55:25;101011.56;;;21.64;46.31
62237;BME280;69163;48.778;2.308;2023-08-12T01:57:50;101001.61;;;21.36;46.38
62237;BME280;69163;48.778;2.308;2023-08-12T02:00:16;101004.73;;;21.11;46.36
62237;BME280;69163;48.778;2.308;2023-08-12T02:02:40;101004.57;;;21.06;46.53
62237;BME280;69163;48.778;2.308;2023-08-12T02:05:06;101001.77;;;21.31;46.51
62237;BME280;69163;48.778;2.308;2023-08-12T02:07:30;101003.08;;;21.38;46.43
62237;BME280;69163;48.778;2.308;2023-08-12T02:09:56;101005.43;;;21.45;46.29
62237;BME280;69163;48.778;2.308;2023-08-12T02:12:21;101010.63;;;21.42;46.30
62237;BME280;69163;48.778;2.308;2023-08-12T02:14:46;101004.07;;;21.27;46.18
62237;BME280;69163;48.778;2.308;2023-08-12T02:17:12;101010.04;;;20.97;46.28
62237;BME280;69163;48.778;2.308;2023-08-12T02:19:37;101004.72;;;21.45;46.29
62237;BME280;69163;48.778;2.308;2023-08-12T02:22:02;100996.55;;;20.95;46.32
62237;BME280;69163;48.778;2.308;2023-08-12T02:24:27;100995.38;;;20.85;46.51
62237;BME280;69163;48.778;2.308;2023-08-12T02:26:52;100998.46;;;20.90;46.45
62237;BME280;69163;48.778;2.308;2023-08-12T02:29:17;101000.12;;;21.14;46.44
62237;BME280;69163;48.778;2.308;2023-08-12T02:31:42;100999.74;;;21.19;46.32
62237;BME280;69163;48.778;2.308;2023-08-12T02:34:08;100993.75;;;21.24;46.30
62237;BME280;69163;48.778;2.308;2023-08-12T02:36:33;100991.58;;;21.48;46.26
62237;BME280;69163;48.778;2.308;2023-08-12T02:38:58;100995.41;;;21.38;46.46
62237;BME280;69163;48.778;2.308;2023-08-12T02:41:24;100993.45;;;21.44;46.35
62237;BME280;69163;48.778;2.308;2023-08-12T02:43:49;100995.29;;;20.88;46.51
62237;BME280;69163;48.778;2.308;2023-08-12T02:46:14;100990.59;;;21.23;46.34
62237;BME280;69163;48.778;2.308;2023-08-12T02:48:39;100993.10;;;21.19;46.45
62237;BME280;69163;48.778;2.308;2023-08-12T02:51:04;100991.99;;;21.25;46.32
62237;BME280;69163;48.778;2.308;2023-08-12T02:53:29;100990.31;;;21.48;46.23
62237;BME280;69163;48.778;2.308;2023-08-12T02:55:55;100988.73;;;21.00;46.30
62237;BME280;69163;48.778;2.308;2023-08-12T02:58:20;100986.36;;;21.45;46.29
62237;BME280;69163;48.778;2.308;2023-08-12T03:00:45;100980.96;;;21.18;46.43
62237;BME280;69163;48.778;2.308;2023-08-12T03:03:10;100983.74;;;21.48;46.30
62237;BME280;69163;48.778;2.308;2023-08-12T03:05:35;100982.18;;;21.39;46.46
62237;BME280;69163;48.778;2.308;2023-08-12T03:08:00;100981.37;;;21.45;46.35
62237;BME280;69163;48.778;2.308;2023-08-12T03:10:26;100980.79;;;21.45;46.34
62237;BME280;69163;48.778;2.308;2023-08-12T03:12:51;100981.04;;;21.28;46.23
62237;BME280;69163;48.778;2.308;2023-08-12T03:15:16;100981.39;;;21.30;46.22
62237;BME280;69163;48.778;2.308;2023-08-12T03:17:41;100979.91;;;21.43;46.36
62237;BME280;69163;48.778;2.308;2023-08-12T03:20:08;100979.92;;;21.45;46.35
62237;BME280;69163;48.778;2.308;2023-08-12T03:22:32;100976.18;;;21.20;46.38
62237;BME280;69163;48.778;2.308;2023-08-12T03:24:57;100975.68;;;21.18;46.43
62237;BME280;69163;48.778;2.308;2023-08-12T03:27:22;100975.66;;;20.98;46.39
62237;BME280;69163;48.778;2.308;2023-08-12T03:29:47;100975.42;;;21.47;46.36
62237;BME280;69163;48.778;2.308;2023-08-12T03:32:13;100974.98;;;20.97;46.36
62237;BME280;69163;48.778;2.308;2023-08-12T03:34:38;100968.26;;;21.42;46.38
62237;BME280;69163;48.778;2.308;2023-08-12T03:37:03;100963.51;;;21.48;46.30
62237;BME280;69163;48.778;2.308;2023-08-12T03:39:28;100965.59;;;20.93;46.46
62237;BME280;69163;48.778;2.308;2023-08-12T03:41:53;100964.36;;;20.99;46.37
62237;BME280;69163;48.778;2.308;2023-08-12T03:44:18;100963.78;;;21.42;46.45
62237;BME280;69163;48.778;2.308;2023-08-12T03:46:43;100957.27;;;21.14;46.50
62237;BME280;69163;48.778;2.308;2023-08-12T03:49:09;100957.90;;;21.45;46.38
62237;BME280;69163;48.778;2.308;2023-08-12T03:51:34;100956.79;;;21.46;46.36
62237;BME280;69163;48.778;2.308;2023-08-12T03:53:59;100957.70;;;21.26;46.29
62237;BME280;69163;48.778;2.308;2023-08-12T03:56:24;100951.68;;;21.25;46.33
62237;BME280;69163;48.778;2.308;2023-08-12T03:58:50;100952.32;;;21.25;46.38
62237;BME280;69163;48.778;2.308;2023-08-12T04:01:15;100951.14;;;21.47;46.38
62237;BME280;69163;48.778;2.308;2023-08-12T04:03:40;100951.60;;;21.12;46.53
62237;BME280;69163;48.778;2.308;2023-08-12T04:06:05;100947.95;;;21.41;46.48
62237;BME280;69163;48.778;2.308;2023-08-12T04:08:30;100948.61;;;20.93;46.52
62237;BME280;69163;48.778;2.308;2023-08-12T04:10:55;100942.93;;;21.48;46.35
62237;BME280;69163;48.778;2.308;2023-08-12T04:13:21;100937.38;;;21.02;46.33
62237;BME280;69163;48.778;2.308;2023-08-12T04:15:49;100929.33;;;21.28;46.29
62237;BME280;69163;48.778;2.308;2023-08-12T04:18:12;100921.54;;;21.09;46.20
62237;BME280;69163;48.778;2.308;2023-08-12T04:20:37;100921.62;;;20.98;46.36
62237;BME280;69163;48.778;2.308;2023-08-12T04:23:01;100923.61;;;21.05;46.29
62237;BME280;69163;48.778;2.308;2023-08-12T04:25:27;100927.97;;;21.24;46.36
62237;BME280;69163;48.778;2.308;2023-08-12T04:27:51;100926.95;;;21.44;46.46
62237;BME280;69163;48.778;2.308;2023-08-12T04:30:18;100929.63;;;21.30;46.28
62237;BME280;69163;48.778;2.308;2023-08-12T04:32:42;100930.26;;;21.15;46.21
62237;BME280;69163;48.778;2.308;2023-08-12T04:35:08;100926.11;;;21.64;46.14
62237;BME280;69163;48.778;2.308;2023-08-12T04:37:33;100928.48;;;21.39;46.12
62237;BME280;69163;48.778;2.308;2023-08-12T04:39:58;100924.04;;;21.56;46.23
62237;BME280;69163;48.778;2.308;2023-08-12T04:42:23;100923.61;;;20.96;46.42
62237;BME280;69163;48.778;2.308;2023-08-12T04:44:48;100926.78;;;21.20;46.42
62237;BME280;69163;48.778;2.308;2023-08-12T04:47:15;100927.56;;;20.93;46.49
62237;BME280;69163;48.778;2.308;2023-08-12T04:49:41;100924.22;;;20.96;46.44
62237;BME280;69163;48.778;2.308;2023-08-12T04:52:05;100929.19;;;20.98;46.40
62237;BME280;69163;48.778;2.308;2023-08-12T04:54:29;100930.94;;;21.27;46.32
62237;BME280;69163;48.778;2.308;2023-08-12T04:56:54;100932.87;;;21.31;46.29
62237;BME280;69163;48.778;2.308;2023-08-12T04:59:19;100931.38;;;21.05;46.32
62237;BME280;69163;48.778;2.308;2023-08-12T05:01:44;100927.72;;;21.01;46.39
62237;BME280;69163;48.778;2.308;2023-08-12T05:04:10;100929.31;;;20.97;46.46
62237;BME280;69163;48.778;2.308;2023-08-12T05:06:35;100927.56;;;20.94;46.48
62237;BME280;69163;48.778;2.308;2023-08-12T05:09:00;100929.50;;;21.02;46.39
62237;BME280;69163;48.778;2.308;2023-08-12T05:11:25;100927.96;;;21.26;46.35
62237;BME280;69163;48.778;2.308;2023-08-12T05:13:50;100924.76;;;21.09;46.27
62237;BME280;69163;48.778;2.308;2023-08-12T05:16:16;100923.95;;;21.33;46.26
62237;BME280;69163;48.778;2.308;2023-08-12T05:18:40;100927.43;;;21.04;46.31
62237;BME280;69163;48.778;2.308;2023-08-12T05:21:06;100931.54;;;21.35;46.26
62237;BME280;69163;48.778;2.308;2023-08-12T05:23:31;100929.90;;;21.57;46.27
62237;BME280;69163;48.778;2.308;2023-08-12T05:25:56;100930.03;;;21.50;46.35
62237;BME280;69163;48.778;2.308;2023-08-12T05:28:22;100931.22;;;21.50;46.41
62237;BME280;69163;48.778;2.308;2023-08-12T05:30:47;100929.25;;;21.25;46.38
62237;BME280;69163;48.778;2.308;2023-08-12T05:33:13;100927.67;;;21.27;46.36
62237;BME280;69163;48.778;2.308;2023-08-12T05:35:37;100928.70;;;21.28;46.36
62237;BME280;69163;48.778;2.308;2023-08-12T05:38:03;100939.74;;;21.11;46.29
62237;BME280;69163;48.778;2.308;2023-08-12T05:40:28;100942.94;;;21.28;46.35
62237;BME280;69163;48.778;2.308;2023-08-12T05:42:53;100952.67;;;21.53;46.35
62237;BME280;69163;48.778;2.308;2023-08-12T05:45:20;100950.33;;;21.03;46.41
62237;BME280;69163;48.778;2.308;2023-08-12T05:47:42;100954.04;;;21.07;46.36
62237;BME280;69163;48.778;2.308;2023-08-12T05:50:08;100953.85;;;21.25;46.45
62237;BME280;69163;48.778;2.308;2023-08-12T05:52:33;100947.92;;;21.00;46.47
62237;BME280;69163;48.778;2.308;2023-08-12T05:54:59;100947.07;;;21.46;46.50
62237;BME280;69163;48.778;2.308;2023-08-12T05:57:23;100942.64;;;20.99;46.47
62237;BME280;69163;48.778;2.308;2023-08-12T05:59:48;100938.35;;;21.49;46.45
62237;BME280;69163;48.778;2.308;2023-08-12T06:02:15;100937.24;;;21.48;46.46
62237;BME280;69163;48.778;2.308;2023-08-12T06:04:39;100939.24;;;21.51;46.46
62237;BME280;69163;48.778;2.308;2023-08-12T06:07:04;100945.73;;;21.25;46.46
62237;BME280;69163;48.778;2.308;2023-08-12T06:09:29;100945.54;;;21.01;46.45
62237;BME280;69163;48.778;2.308;2023-08-12T06:11:54;100945.42;;;21.04;46.41
62237;BME280;69163;48.778;2.308;2023-08-12T06:14:20;100946.04;;;21.51;46.42
62237;BME280;69163;48.778;2.308;2023-08-12T06:16:45;100945.92;;;21.50;46.44
62237;BME280;69163;48.778;2.308;2023-08-12T06:19:11;100946.86;;;21.52;46.41
62237;BME280;69163;48.778;2.308;2023-08-12T06:21:35;100944.05;;;21.56;46.34
62237;BME280;69163;48.778;2.308;2023-08-12T06:24:01;100942.05;;;21.33;46.34
62237;BME280;69163;48.778;2.308;2023-08-12T06:26:26;100939.54;;;21.31;46.35
62237;BME280;69163;48.778;2.308;2023-08-12T06:28:51;100938.73;;;21.51;46.40
62237;BME280;69163;48.778;2.308;2023-08-12T06:31:16;100937.77;;;21.29;46.40
62237;BME280;69163;48.778;2.308;2023-08-12T06:33:42;100938.94;;;21.07;46.34
62237;BME280;69163;48.778;2.308;2023-08-12T06:36:07;100941.18;;;21.33;46.33
62237;BME280;69163;48.778;2.308;2023-08-12T06:38:32;100941.18;;;21.33;46.36
62237;BME280;69163;48.778;2.308;2023-08-12T06:40:57;100939.50;;;21.34;46.31
62237;BME280;69163;48.778;2.308;2023-08-12T06:43:22;100942.96;;;21.12;46.32
62237;BME280;69163;48.778;2.308;2023-08-12T06:45:47;100943.91;;;21.52;46.41
62237;BME280;69163;48.778;2.308;2023-08-12T06:48:13;100941.39;;;21.56;46.36
62237;BME280;69163;48.778;2.308;2023-08-12T06:50:38;100940.03;;;21.31;46.38
62237;BME280;69163;48.778;2.308;2023-08-12T06:53:04;100942.97;;;21.34;46.37
62237;BME280;69163;48.778;2.308;2023-08-12T06:55:28;100946.09;;;21.09;46.36
62237;BME280;69163;48.778;2.308;2023-08-12T06:57:54;100945.57;;;21.55;46.38
62237;BME280;69163;48.778;2.308;2023-08-12T07:00:19;100947.80;;;21.38;46.34
62237;BME280;69163;48.778;2.308;2023-08-12T07:02:44;100949.98;;;21.61;46.33
62237;BME280;69163;48.778;2.308;2023-08-12T07:05:09;100955.29;;;21.33;46.44
62237;BME280;69163;48.778;2.308;2023-08-12T07:07:34;100957.03;;;21.54;46.40
62237;BME280;69163;48.778;2.308;2023-08-12T07:10:00;100958.12;;;21.51;46.45
62237;BME280;69163;48.778;2.308;2023-08-12T07:12:25;100955.36;;;21.55;46.42
62237;BME280;69163;48.778;2.308;2023-08-12T07:14:50;100953.67;;;21.04;46.48
62237;BME280;69163;48.778;2.308;2023-08-12T07:17:16;100955.58;;;21.29;46.45
62237;BME280;69163;48.778;2.308;2023-08-12T07:19:40;100956.60;;;21.59;46.38
62237;BME280;69163;48.778;2.308;2023-08-12T07:22:06;100961.85;;;21.56;46.44
62237;BME280;69163;48.778;2.308;2023-08-12T07:24:31;100964.50;;;21.16;46.35
62237;BME280;69163;48.778;2.308;2023-08-12T07:26:56;100968.66;;;21.61;46.40
62237;BME280;69163;48.778;2.308;2023-08-12T07:29:21;100968.44;;;21.55;46.44
62237;BME280;69163;48.778;2.308;2023-08-12T07:31:46;100969.70;;;21.57;46.45
62237;BME280;69163;48.778;2.308;2023-08-12T07:34:12;100967.00;;;21.59;46.39
62237;BME280;69163;48.778;2.308;2023-08-12T07:36:37;100968.19;;;21.29;46.48
62237;BME280;69163;48.778;2.308;2023-08-12T07:39:02;100968.50;;;21.03;46.52
62237;BME280;69163;48.778;2.308;2023-08-12T07:41:27;100968.75;;;21.53;46.49
62237;BME280;69163;48.778;2.308;2023-08-12T07:43:52;100980.19;;;21.49;46.59
62237;BME280;69163;48.778;2.308;2023-08-12T07:46:18;100991.07;;;21.26;46.60
62237;BME280;69163;48.778;2.308;2023-08-12T07:48:43;100985.70;;;21.27;46.56
62237;BME280;69163;48.778;2.308;2023-08-12T07:51:08;100992.05;;;21.29;46.53
62237;BME280;69163;48.778;2.308;2023-08-12T07:53:33;100999.94;;;21.24;46.59
62237;BME280;69163;48.778;2.308;2023-08-12T07:55:58;101003.65;;;20.97;46.65
62237;BME280;69163;48.778;2.308;2023-08-12T07:58:23;101008.43;;;21.18;46.72
62237;BME280;69163;48.778;2.308;2023-08-12T08:00:51;101011.47;;;21.50;46.61
62237;BME280;69163;48.778;2.308;2023-08-12T08:03:15;101011.90;;;21.49;46.59
62237;BME280;69163;48.778;2.308;2023-08-12T08:05:40;101013.59;;;21.02;46.59
62237;BME280;69163;48.778;2.308;2023-08-12T08:08:04;101014.08;;;21.19;46.71
62237;BME280;69163;48.778;2.308;2023-08-12T08:10:29;101019.75;;;21.01;46.61
62237;BME280;69163;48.778;2.308;2023-08-12T08:12:55;101026.06;;;21.45;46.64
62237;BME280;69163;48.778;2.308;2023-08-12T08:15:20;101025.78;;;21.44;46.65
62237;BME280;69163;48.778;2.308;2023-08-12T08:17:45;101023.71;;;21.44;46.67
62237;BME280;69163;48.778;2.308;2023-08-12T08:20:11;101019.79;;;21.38;46.75
62237;BME280;69163;48.778;2.308;2023-08-12T08:22:35;101022.25;;;21.42;46.66
62237;BME280;69163;48.778;2.308;2023-08-12T08:25:01;101023.57;;;21.41;46.71
62237;BME280;69163;48.778;2.308;2023-08-12T08:27:26;101025.97;;;21.44;46.65
62237;BME280;69163;48.778;2.308;2023-08-12T08:29:51;101027.13;;;21.47;46.57
62237;BME280;69163;48.778;2.308;2023-08-12T08:32:17;101030.81;;;21.48;46.58
62237;BME280;69163;48.778;2.308;2023-08-12T08:34:41;101038.12;;;21.23;46.60
62237;BME280;69163;48.778;2.308;2023-08-12T08:37:07;101035.26;;;21.41;46.67
62237;BME280;69163;48.778;2.308;2023-08-12T08:39:31;101034.23;;;20.94;46.64
62237;BME280;69163;48.778;2.308;2023-08-12T08:41:57;101040.44;;;21.43;46.65
62237;BME280;69163;48.778;2.308;2023-08-12T08:44:22;101038.90;;;21.50;46.56
62237;BME280;69163;48.778;2.308;2023-08-12T08:46:49;101035.42;;;21.50;46.50
62237;BME280;69163;48.778;2.308;2023-08-12T08:49:14;101035.98;;;21.45;46.59
62237;BME280;69163;48.778;2.308;2023-08-12T08:51:38;101036.89;;;21.46;46.60
62237;BME280;69163;48.778;2.308;2023-08-12T08:54:03;101032.23;;;21.49;46.52
62237;BME280;69163;48.778;2.308;2023-08-12T08:56:29;101029.75;;;21.21;46.61
62237;BME280;69163;48.778;2.308;2023-08-12T08:58:53;101034.48;;;21.48;46.54
62237;BME280;69163;48.778;2.308;2023-08-12T09:01:20;101032.29;;;21.42;46.60
62237;BME280;69163;48.778;2.308;2023-08-12T09:03:44;101032.27;;;21.39;46.64
62237;BME280;69163;48.778;2.308;2023-08-12T09:06:09;101031.85;;;21.20;46.60
62237;BME280;69163;48.778;2.308;2023-08-12T09:08:34;101031.37;;;21.54;46.85
62237;BME280;69163;48.778;2.308;2023-08-12T09:11:00;101033.48;;;21.37;46.75
62237;BME280;69163;48.778;2.308;2023-08-12T09:13:24;101036.70;;;20.88;46.75
62237;BME280;69163;48.778;2.308;2023-08-12T09:15:49;101035.22;;;21.58;46.78
62237;BME280;69163;48.778;2.308;2023-08-12T09:18:16;101032.22;;;21.09;46.76
62237;BME280;69163;48.778;2.308;2023-08-12T09:20:40;101034.07;;;21.35;46.81
62237;BME280;69163;48.778;2.308;2023-08-12T09:23:05;101036.63;;;21.30;46.85
62237;BME280;69163;48.778;2.308;2023-08-12T09:25:30;101040.78;;;21.29;46.88
62237;BME280;69163;48.778;2.308;2023-08-12T09:27:58;101044.72;;;21.27;46.95
62237;BME280;69163;48.778;2.308;2023-08-12T09:30:21;101044.56;;;21.31;46.92
62237;BME280;69163;48.778;2.308;2023-08-12T09:32:58;101040.81;;;21.03;46.99
62237;BME280;69163;48.778;2.308;2023-08-12T09:35:16;101035.01;;;21.23;47.06
62237;BME280;69163;48.778;2.308;2023-08-12T09:37:36;101038.50;;;20.74;47.08
62237;BME280;69163;48.778;2.308;2023-08-12T09:40:02;101037.72;;;21.28;46.98
62237;BME280;69163;48.778;2.308;2023-08-12T09:42:28;101038.39;;;21.30;46.91
62237;BME280;69163;48.778;2.308;2023-08-12T09:44:52;101042.94;;;20.81;46.95
62237;BME280;69163;48.778;2.308;2023-08-12T09:47:17;101047.63;;;21.02;47.04
62237;BME280;69163;48.778;2.308;2023-08-12T09:49:42;101047.71;;;21.28;47.00
62237;BME280;69163;48.778;2.308;2023-08-12T09:52:07;101053.12;;;21.04;47.03
62237;BME280;69163;48.778;2.308;2023-08-12T09:54:33;101058.24;;;21.24;47.07
62237;BME280;69163;48.778;2.308;2023-08-12T09:56:58;101059.07;;;21.10;47.28
62237;BME280;69163;48.778;2.308;2023-08-12T09:59:23;101060.98;;;20.63;47.29
62237;BME280;69163;48.778;2.308;2023-08-12T10:01:50;101057.29;;;20.94;47.18
62237;BME280;69163;48.778;2.308;2023-08-12T10:04:16;101060.02;;;20.93;47.21
62237;BME280;69163;48.778;2.308;2023-08-12T10:06:38;101056.82;;;21.20;47.15
62237;BME280;69163;48.778;2.308;2023-08-12T10:09:04;101054.16;;;21.23;47.14
62237;BME280;69163;48.778;2.308;2023-08-12T10:11:29;101050.20;;;20.73;47.18
62237;BME280;69163;48.778;2.308;2023-08-12T10:13:53;101047.86;;;20.67;47.24
62237;BME280;69163;48.778;2.308;2023-08-12T10:16:19;101046.59;;;20.63;47.33
62237;BME280;69163;48.778;2.308;2023-08-12T10:18:46;101041.80;;;20.92;47.29
62237;BME280;69163;48.778;2.308;2023-08-12T10:21:10;101042.36;;;21.17;47.27
62237;BME280;69163;48.778;2.308;2023-08-12T10:23:34;101043.53;;;21.18;47.25
62237;BME280;69163;48.778;2.308;2023-08-12T10:26:00;101044.33;;;21.23;47.18
62237;BME280;69163;48.778;2.308;2023-08-12T10:28:24;101044.94;;;21.21;47.21
62237;BME280;69163;48.778;2.308;2023-08-12T10:30:50;101043.46;;;21.14;47.35
62237;BME280;69163;48.778;2.308;2023-08-12T10:33:16;101045.22;;;20.89;47.40
62237;BME280;69163;48.778;2.308;2023-08-12T10:35:43;101045.98;;;21.03;47.55
62237;BME280;69163;48.778;2.308;2023-08-12T10:38:06;101044.09;;;20.77;47.56
62237;BME280;69163;48.778;2.308;2023-08-12T10:40:31;101040.56;;;21.05;47.51
62237;BME280;69163;48.778;2.308;2023-08-12T10:42:56;101042.01;;;21.09;47.46
62237;BME280;69163;48.778;2.308;2023-08-12T10:45:21;101040.68;;;21.09;47.47
62237;BME280;69163;48.778;2.308;2023-08-12T10:47:51;101041.15;;;20.86;47.44
62237;BME280;69163;48.778;2.308;2023-08-12T10:50:19;101038.91;;;21.12;47.44
62237;BME280;69163;48.778;2.308;2023-08-12T10:52:37;101036.52;;;21.07;47.55
62237;BME280;69163;48.778;2.308;2023-08-12T10:55:18;101028.45;;;21.04;47.54
62237;BME280;69163;48.778;2.308;2023-08-12T10:57:36;101029.42;;;20.54;47.71
62237;BME280;69163;48.778;2.308;2023-08-12T10:59:54;101027.51;;;20.76;47.62
62237;BME280;69163;48.778;2.308;2023-08-12T11:02:19;101024.63;;;20.57;47.53
62237;BME280;69163;48.778;2.308;2023-08-12T11:04:43;101022.73;;;21.03;47.59
62237;BME280;69163;48.778;2.308;2023-08-12T11:07:17;101025.19;;;21.05;47.55
62237;BME280;69163;48.778;2.308;2023-08-12T11:09:34;101018.38;;;20.81;47.61
62237;BME280;69163;48.778;2.308;2023-08-12T11:11:59;101016.68;;;21.03;47.68
62237;BME280;69163;48.778;2.308;2023-08-12T11:14:24;101016.61;;;20.94;47.81
62237;BME280;69163;48.778;2.308;2023-08-12T11:16:49;101013.07;;;21.17;47.79
62237;BME280;69163;48.778;2.308;2023-08-12T11:19:15;101009.56;;;20.95;47.82
62237;BME280;69163;48.778;2.308;2023-08-12T11:21:40;101017.19;;;20.93;47.80
62237;BME280;69163;48.778;2.308;2023-08-12T11:24:05;101029.24;;;20.95;47.81
62237;BME280;69163;48.778;2.308;2023-08-12T11:26:30;101018.06;;;20.74;47.72
62237;BME280;69163;48.778;2.308;2023-08-12T11:28:55;101015.64;;;21.00;47.68
62237;BME280;69163;48.778;2.308;2023-08-12T11:31:21;101016.80;;;20.70;47.81
62237;BME280;69163;48.778;2.308;2023-08-12T11:33:45;101012.54;;;21.00;47.63
62237;BME280;69163;48.778;2.308;2023-08-12T11:36:11;101012.61;;;20.93;47.84
62237;BME280;69163;48.778;2.308;2023-08-12T11:38:37;101007.85;;;20.95;47.80
62237;BME280;69163;48.778;2.308;2023-08-12T11:41:01;101010.54;;;20.96;47.80
62237;BME280;69163;48.778;2.308;2023-08-12T11:43:26;101014.03;;;20.96;47.79
62237;BME280;69163;48.778;2.308;2023-08-12T11:45:51;101003.59;;;20.71;47.77
62237;BME280;69163;48.778;2.308;2023-08-12T11:48:16;101002.04;;;20.99;47.66
62237;BME280;69163;48.778;2.308;2023-08-12T11:50:41;100999.61;;;20.95;47.77
62237;BME280;69163;48.778;2.308;2023-08-12T11:53:07;101003.64;;;20.96;47.74
62237;BME280;69163;48.778;2.308;2023-08-12T11:55:32;101007.35;;;20.93;47.83
62237;BME280;69163;48.778;2.308;2023-08-12T11:57:58;101004.13;;;20.92;47.84
62237;BME280;69163;48.778;2.308;2023-08-12T12:00:25;101005.20;;;20.50;47.71
62237;BME280;69163;48.778;2.308;2023-08-12T12:02:48;101004.12;;;20.95;47.87
62237;BME280;69163;48.778;2.308;2023-08-12T12:05:13;101002.63;;;20.95;47.87
62237;BME280;69163;48.778;2.308;2023-08-12T12:07:38;101002.52;;;21.24;47.72
62237;BME280;69163;48.778;2.308;2023-08-12T12:10:04;100997.28;;;21.24;47.78
62237;BME280;69163;48.778;2.308;2023-08-12T12:12:28;100998.61;;;21.00;47.78
62237;BME280;69163;48.778;2.308;2023-08-12T12:14:53;100995.99;;;21.02;47.72
62237;BME280;69163;48.778;2.308;2023-08-12T12:17:18;100997.10;;;20.95;47.78
62237;BME280;69163;48.778;2.308;2023-08-12T12:19:44;100995.56;;;21.19;47.84
62237;BME280;69163;48.778;2.308;2023-08-12T12:22:09;100993.87;;;20.99;47.76
62237;BME280;69163;48.778;2.308;2023-08-12T12:24:44;100994.55;;;21.15;47.88
62237;BME280;69163;48.778;2.308;2023-08-12T12:26:59;100994.84;;;20.91;47.93
62237;BME280;69163;48.778;2.308;2023-08-12T12:29:24;100998.33;;;21.16;47.81
62237;BME280;69163;48.778;2.308;2023-08-12T12:31:50;100993.95;;;20.87;48.00
62237;BME280;69163;48.778;2.308;2023-08-12T12:34:15;100994.81;;;20.92;47.89
62237;BME280;69163;48.778;2.308;2023-08-12T12:36:40;100995.68;;;20.91;47.79
62237;BME280;69163;48.778;2.308;2023-08-12T12:39:06;100999.88;;;20.92;47.92